createdAt,value
2023-08-08T00:01:01.563Z,100.00
2023-08-08T00:03:30.314Z,100.00
2023-08-08T00:05:58.892Z,100.00
2023-08-08T00:08:27.449Z,99.92
2023-08-08T00:11:11.501Z,98.68
2023-08-08T00:13:40.456Z,97.67
2023-08-08T00:16:09.305Z,97.78
2023-08-08T00:18:38.016Z,97.60
2023-08-08T00:21:06.617Z,97.33
2023-08-08T00:23:35.132Z,97.69
2023-08-08T00:26:03.735Z,96.73
2023-08-08T00:28:33.629Z,97.03
2023-08-08T00:31:02.563Z,96.34
2023-08-08T00:33:33.295Z,96.57
2023-08-08T00:36:01.807Z,96.16
2023-08-08T00:38:34.544Z,96.48
2023-08-08T00:41:05.837Z,95.51
2023-08-08T00:43:51.247Z,95.06
2023-08-08T00:46:23.414Z,94.92
2023-08-08T00:48:52.586Z,94.82
2023-08-08T00:51:23.330Z,94.46
2023-08-08T00:53:52.147Z,94.65
2023-08-08T00:56:21.393Z,93.95
2023-08-08T00:58:51.949Z,93.81
2023-08-08T01:01:21.253Z,94.08
2023-08-08T01:03:50.819Z,93.46
2023-08-08T01:06:26.045Z,93.60
2023-08-08T01:09:00.399Z,93.06
2023-08-08T01:11:31.924Z,92.83
2023-08-08T01:14:03.095Z,92.78
2023-08-08T01:16:32.308Z,93.26
2023-08-08T01:19:01.212Z,93.00
2023-08-08T01:21:31.745Z,92.89
2023-08-08T01:24:16.029Z,92.67
2023-08-08T01:26:44.948Z,92.76
2023-08-08T01:29:13.446Z,93.32
2023-08-08T01:31:42.118Z,93.04
2023-08-08T01:34:10.798Z,93.50
2023-08-08T01:36:47.154Z,92.44
2023-08-08T01:39:22.125Z,92.63
2023-08-08T01:41:52.350Z,92.45
2023-08-08T01:44:21.794Z,93.01
2023-08-08T01:46:50.335Z,94.11
2023-08-08T01:49:18.837Z,94.97
2023-08-08T01:51:47.566Z,94.57
2023-08-08T01:54:17.567Z,94.52
2023-08-08T01:56:46.029Z,95.50
2023-08-08T01:59:16.023Z,95.58
2023-08-08T02:01:44.881Z,94.94
2023-08-08T02:04:13.378Z,95.58
2023-08-08T02:06:41.945Z,94.73
2023-08-08T02:09:10.437Z,94.21
2023-08-08T02:11:40.415Z,93.17
2023-08-08T02:14:09.420Z,93.64
2023-08-08T02:16:37.958Z,94.20
2023-08-08T02:19:06.590Z,95.02
2023-08-08T02:21:35.246Z,94.92
2023-08-08T02:24:04.038Z,94.97
2023-08-08T02:26:32.785Z,94.50
2023-08-08T02:29:02.665Z,93.97
2023-08-08T02:31:31.296Z,93.97
2023-08-08T02:33:59.870Z,93.58
2023-08-08T02:36:28.382Z,92.78
2023-08-08T02:38:56.892Z,92.28
2023-08-08T02:41:25.371Z,92.05
2023-08-08T02:43:54.018Z,91.98
2023-08-08T02:46:23.900Z,91.67
2023-08-08T02:48:52.514Z,92.14
2023-08-08T02:51:32.658Z,92.49
2023-08-08T02:54:01.197Z,91.41
2023-08-08T02:56:29.606Z,91.23
2023-08-08T02:58:59.238Z,91.59
2023-08-08T03:01:29.124Z,91.14
2023-08-08T03:03:57.728Z,91.32
2023-08-08T03:06:26.340Z,91.22
2023-08-08T03:08:54.833Z,91.44
2023-08-08T03:11:23.402Z,94.56
2023-08-08T03:13:51.896Z,97.97
2023-08-08T03:16:20.605Z,100.00
2023-08-08T03:18:50.424Z,100.00
2023-08-08T03:21:18.926Z,100.00
2023-08-08T03:24:11.464Z,100.00
2023-08-08T03:26:40.122Z,100.00
2023-08-08T03:29:11.133Z,100.00
2023-08-08T03:31:39.910Z,100.00
2023-08-08T03:34:09.851Z,100.00
2023-08-08T03:36:39.920Z,100.00
2023-08-08T03:39:12.401Z,100.00
2023-08-08T03:41:40.922Z,100.00
2023-08-08T03:44:09.386Z,100.00
2023-08-08T03:46:37.951Z,100.00
2023-08-08T03:49:06.538Z,100.00
2023-08-08T03:51:36.420Z,100.00
2023-08-08T03:54:20.554Z,100.00
2023-08-08T03:56:49.132Z,100.00
2023-08-08T03:59:25.695Z,100.00
2023-08-08T04:01:54.282Z,100.00
2023-08-08T04:04:22.771Z,100.00
2023-08-08T04:06:52.592Z,100.00
2023-08-08T04:09:21.076Z,100.00
2023-08-08T04:11:49.796Z,100.00
2023-08-08T04:14:18.416Z,100.00
2023-08-08T04:16:46.978Z,100.00
2023-08-08T04:19:15.454Z,100.00
2023-08-08T04:21:43.978Z,100.00
2023-08-08T04:24:14.057Z,100.00
2023-08-08T04:26:42.754Z,100.00
2023-08-08T04:29:11.244Z,100.00
2023-08-08T04:31:39.802Z,100.00
2023-08-08T04:34:08.266Z,100.00
2023-08-08T04:36:51.051Z,100.00
2023-08-08T04:39:21.069Z,100.00
2023-08-08T04:41:49.591Z,100.00
2023-08-08T04:44:18.034Z,100.00
2023-08-08T04:46:46.512Z,100.00
2023-08-08T04:49:29.944Z,100.00
2023-08-08T04:51:58.788Z,100.00
2023-08-08T04:54:28.865Z,100.00
2023-08-08T04:56:57.522Z,100.00
2023-08-08T04:59:26.185Z,100.00
2023-08-08T05:01:54.658Z,100.00
2023-08-08T05:04:23.320Z,100.00
2023-08-08T05:06:53.082Z,100.00
2023-08-08T05:09:21.826Z,100.00
2023-08-08T05:11:52.022Z,100.00
2023-08-08T05:14:21.885Z,100.00
2023-08-08T05:16:50.481Z,100.00
2023-08-08T05:19:19.030Z,100.00
2023-08-08T05:21:47.963Z,100.00
2023-08-08T05:24:17.140Z,100.00
2023-08-08T05:26:45.788Z,100.00
2023-08-08T05:29:15.625Z,100.00
2023-08-08T05:31:44.181Z,100.00
2023-08-08T05:34:12.799Z,100.00
2023-08-08T05:36:41.332Z,100.00
2023-08-08T05:39:10.726Z,100.00
2023-08-08T05:41:39.197Z,100.00
2023-08-08T05:44:07.716Z,100.00
2023-08-08T05:46:39.797Z,100.00
2023-08-08T05:49:09.195Z,100.00
2023-08-08T05:51:37.771Z,100.00
2023-08-08T05:54:06.920Z,100.00
2023-08-08T05:56:38.686Z,100.00
2023-08-08T05:59:07.520Z,100.00
2023-08-08T06:01:37.286Z,100.00
2023-08-08T06:04:29.170Z,100.00
2023-08-08T06:06:57.810Z,100.00
2023-08-08T06:09:26.986Z,100.00
2023-08-08T06:11:55.570Z,100.00
2023-08-08T06:14:24.245Z,100.00
2023-08-08T06:16:52.738Z,100.00
2023-08-08T06:19:21.301Z,100.00
2023-08-08T06:21:51.388Z,100.00
2023-08-08T06:24:19.939Z,100.00
2023-08-08T06:26:48.505Z,100.00
2023-08-08T06:29:18.448Z,100.00
2023-08-08T06:31:51.763Z,100.00
2023-08-08T06:34:20.468Z,100.00
2023-08-08T06:36:49.190Z,100.00
2023-08-08T06:39:20.545Z,100.00
2023-08-08T06:41:49.326Z,100.00
2023-08-08T06:44:17.897Z,100.00
2023-08-08T06:46:46.412Z,100.00
2023-08-08T06:49:15.240Z,100.00
2023-08-08T06:52:03.831Z,100.00
2023-08-08T06:54:33.983Z,100.00
2023-08-08T06:57:03.166Z,100.00
2023-08-08T06:59:32.094Z,100.00
2023-08-08T07:02:00.655Z,100.00
2023-08-08T07:04:29.188Z,100.00
2023-08-08T07:06:57.812Z,100.00
2023-08-08T07:09:26.705Z,100.00
2023-08-08T07:11:56.657Z,100.00
2023-08-08T07:14:25.259Z,100.00
2023-08-08T07:16:54.517Z,100.00
2023-08-08T07:19:23.144Z,97.83
2023-08-08T07:21:51.645Z,97.90
2023-08-08T07:24:21.396Z,96.92
2023-08-08T07:26:49.855Z,95.89
2023-08-08T07:29:19.966Z,96.60
2023-08-08T07:31:48.525Z,96.13
2023-08-08T07:34:17.352Z,94.60
2023-08-08T07:36:46.555Z,91.21
2023-08-08T07:39:15.995Z,88.93
2023-08-08T07:41:44.518Z,85.49
2023-08-08T07:44:13.040Z,83.95
2023-08-08T07:46:43.420Z,83.47
2023-08-08T07:49:11.989Z,82.69
2023-08-08T07:51:40.617Z,81.29
2023-08-08T07:54:09.742Z,78.48
2023-08-08T07:56:38.600Z,76.01
2023-08-08T07:59:07.415Z,72.34
2023-08-08T08:01:36.524Z,71.75
2023-08-08T08:04:06.532Z,65.28
2023-08-08T08:06:35.185Z,61.88
2023-08-08T08:09:04.501Z,59.96
2023-08-08T08:11:33.367Z,63.03
2023-08-08T08:14:01.974Z,61.81
2023-08-08T08:16:30.688Z,61.04
2023-08-08T08:18:59.690Z,60.72
2023-08-08T08:21:29.656Z,61.53
2023-08-08T08:23:58.130Z,63.83
2023-08-08T08:26:37.573Z,64.54
2023-08-08T08:29:06.414Z,65.43
2023-08-08T08:31:35.026Z,67.87
2023-08-08T08:34:03.682Z,71.43
2023-08-08T08:36:33.708Z,73.24
2023-08-08T08:39:02.307Z,74.49
2023-08-08T08:41:34.599Z,70.86
2023-08-08T08:44:03.472Z,62.61
2023-08-08T08:46:32.599Z,61.50
2023-08-08T08:49:01.840Z,57.88
2023-08-08T08:51:30.982Z,58.27
2023-08-08T08:54:01.111Z,60.16
2023-08-08T08:56:29.776Z,55.83
2023-08-08T08:58:58.626Z,51.13
2023-08-08T09:01:28.370Z,52.54
2023-08-08T09:03:57.216Z,53.90
2023-08-08T09:06:26.595Z,53.76
2023-08-08T09:09:03.122Z,51.69
2023-08-08T09:11:37.464Z,48.92
2023-08-08T09:14:06.117Z,50.97
2023-08-08T09:16:34.803Z,53.16
2023-08-08T09:19:04.493Z,52.33
2023-08-08T09:21:33.177Z,54.39
2023-08-08T09:24:01.832Z,55.96
2023-08-08T09:26:30.530Z,56.45
2023-08-08T09:29:16.306Z,57.08
2023-08-08T09:31:45.290Z,57.95
2023-08-08T09:34:13.859Z,59.78
2023-08-08T09:36:42.721Z,63.01
2023-08-08T09:39:11.636Z,63.12
2023-08-08T09:41:41.040Z,61.33
2023-08-08T09:44:10.459Z,56.17
2023-08-08T09:46:41.268Z,48.90
2023-08-08T09:49:12.367Z,49.12
2023-08-08T09:51:41.421Z,51.28
2023-08-08T09:54:10.888Z,54.06
2023-08-08T09:56:41.457Z,56.95
2023-08-08T09:59:12.311Z,59.66
2023-08-08T10:01:43.728Z,62.20
2023-08-08T10:04:14.314Z,63.75
2023-08-08T10:06:42.837Z,66.12
2023-08-08T10:09:11.421Z,67.67
2023-08-08T10:11:40.014Z,69.12
2023-08-08T10:14:32.267Z,69.29
2023-08-08T10:17:05.266Z,69.87
2023-08-08T10:19:34.970Z,70.98
2023-08-08T10:22:06.715Z,72.58
2023-08-08T10:24:37.278Z,75.62
2023-08-08T10:27:06.571Z,77.97
2023-08-08T10:29:35.994Z,79.74
2023-08-08T10:32:08.620Z,80.67
2023-08-08T10:34:41.674Z,81.26
2023-08-08T10:37:12.725Z,79.23
2023-08-08T10:39:52.990Z,69.80
2023-08-08T10:42:24.280Z,63.72
2023-08-08T10:44:54.645Z,65.70
2023-08-08T10:47:28.329Z,67.76
2023-08-08T10:50:01.824Z,69.62
2023-08-08T10:52:31.332Z,71.92
2023-08-08T10:55:00.170Z,71.72
2023-08-08T10:57:29.422Z,73.11
2023-08-08T10:59:57.970Z,75.13
2023-08-08T11:02:28.137Z,75.57
2023-08-08T11:04:58.222Z,74.72
2023-08-08T11:07:29.840Z,71.75
2023-08-08T11:10:05.521Z,67.34
2023-08-08T11:12:34.219Z,61.20
2023-08-08T11:15:03.030Z,53.34
2023-08-08T11:17:34.320Z,46.25
2023-08-08T11:20:17.170Z,40.15
2023-08-08T11:22:45.871Z,38.40
2023-08-08T11:25:16.854Z,34.87
2023-08-08T11:27:51.338Z,35.05
2023-08-08T11:30:20.549Z,39.20
2023-08-08T11:35:25.558Z,52.24
2023-08-08T11:37:55.930Z,56.47
2023-08-08T11:40:25.867Z,60.50
2023-08-08T11:42:55.590Z,65.10
2023-08-08T11:45:24.648Z,68.21
2023-08-08T11:47:56.076Z,69.12
2023-08-08T11:50:28.413Z,68.11
2023-08-08T11:52:57.935Z,68.94
2023-08-08T11:55:30.451Z,67.05
2023-08-08T11:58:00.696Z,64.74
2023-08-08T12:00:31.363Z,59.49
2023-08-08T12:03:05.351Z,55.15
2023-08-08T12:05:39.688Z,50.00
2023-08-08T12:08:10.231Z,39.10
2023-08-08T12:10:41.237Z,34.17
2023-08-08T12:13:12.950Z,31.68
2023-08-08T12:15:50.189Z,31.55
2023-08-08T12:18:21.625Z,30.93
2023-08-08T12:20:50.164Z,34.00
2023-08-08T12:23:18.796Z,37.42
2023-08-08T12:25:48.450Z,40.87
2023-08-08T12:28:16.992Z,43.03
2023-08-08T12:30:45.697Z,40.32
2023-08-08T12:33:14.385Z,41.71
2023-08-08T12:35:44.373Z,41.93
2023-08-08T12:38:12.973Z,39.27
2023-08-08T12:40:44.332Z,41.74
2023-08-08T12:43:18.100Z,40.01
2023-08-08T12:45:47.113Z,36.57
2023-08-08T12:48:15.867Z,40.10
2023-08-08T12:50:45.813Z,41.89
2023-08-08T12:53:14.709Z,44.73
2023-08-08T12:55:43.207Z,43.03
2023-08-08T12:58:11.758Z,36.49
2023-08-08T13:00:41.071Z,32.28
2023-08-08T13:03:10.609Z,30.38
2023-08-08T13:05:40.026Z,30.10
2023-08-08T13:08:10.364Z,31.69
2023-08-08T13:10:39.474Z,33.59
2023-08-08T13:13:08.422Z,36.36
2023-08-08T13:15:37.598Z,39.89
2023-08-08T13:18:06.931Z,42.50
2023-08-08T13:20:37.829Z,42.63
2023-08-08T13:23:06.695Z,41.88
2023-08-08T13:25:36.536Z,42.86
2023-08-08T13:28:05.391Z,43.91
2023-08-08T13:30:35.002Z,45.49
2023-08-08T13:33:03.770Z,45.32
2023-08-08T13:35:32.371Z,42.97
2023-08-08T13:38:01.005Z,43.99
2023-08-08T13:40:29.614Z,44.00
2023-08-08T13:42:59.764Z,44.91
2023-08-08T13:45:28.405Z,43.94
2023-08-08T13:47:56.943Z,43.42
2023-08-08T13:50:27.372Z,43.42
2023-08-08T13:52:59.540Z,42.58
2023-08-08T13:55:28.935Z,42.31
2023-08-08T13:57:59.414Z,43.26
2023-08-08T14:00:28.657Z,42.39
2023-08-08T14:03:00.897Z,41.00
2023-08-08T14:05:29.988Z,41.08
2023-08-08T14:08:05.586Z,40.79
2023-08-08T14:10:35.899Z,40.41
2023-08-08T14:13:10.080Z,42.09
2023-08-08T14:15:40.629Z,43.81
2023-08-08T14:18:09.760Z,44.71
2023-08-08T14:20:42.217Z,46.88
2023-08-08T14:23:11.826Z,48.66
2023-08-08T14:25:40.493Z,48.94
2023-08-08T14:28:10.522Z,50.13
2023-08-08T14:30:39.098Z,52.37
2023-08-08T14:33:07.949Z,52.25
2023-08-08T14:35:37.431Z,47.58
2023-08-08T14:38:07.251Z,44.49
2023-08-08T14:40:43.973Z,44.86
2023-08-08T14:43:14.906Z,44.48
2023-08-08T14:45:43.745Z,44.40
2023-08-08T14:48:17.658Z,45.98
2023-08-08T14:50:46.524Z,47.62
2023-08-08T14:53:17.505Z,48.46
2023-08-08T14:55:46.976Z,48.73
2023-08-08T14:58:19.561Z,47.50
2023-08-08T15:00:49.290Z,45.14
2023-08-08T15:03:19.888Z,44.33
2023-08-08T15:05:49.865Z,45.26
2023-08-08T15:08:19.182Z,45.14
2023-08-08T15:10:51.468Z,45.07
2023-08-08T15:13:22.658Z,45.17
2023-08-08T15:15:51.249Z,44.95
2023-08-08T15:18:19.751Z,45.19
2023-08-08T15:20:48.374Z,44.62
2023-08-08T15:23:17.293Z,44.57
2023-08-08T15:26:01.696Z,44.72
2023-08-08T15:28:32.486Z,45.15
2023-08-08T15:31:00.998Z,44.28
2023-08-08T15:33:32.794Z,43.56
2023-08-08T15:38:32.115Z,42.85
2023-08-08T15:41:01.647Z,43.45
2023-08-08T15:43:31.309Z,44.77
2023-08-08T15:46:02.830Z,45.17
2023-08-08T15:48:32.395Z,46.33
2023-08-08T15:51:01.326Z,46.77
2023-08-08T15:53:31.214Z,47.00
2023-08-08T15:56:00.179Z,47.13
2023-08-08T15:58:32.783Z,47.58
2023-08-08T16:01:04.621Z,47.86
2023-08-08T16:03:38.762Z,47.00
2023-08-08T16:06:09.257Z,46.70
2023-08-08T16:08:39.012Z,46.43
2023-08-08T16:11:11.222Z,47.59
2023-08-08T16:13:42.113Z,47.29
2023-08-08T16:16:12.514Z,45.71
2023-08-08T16:18:42.618Z,45.24
2023-08-08T16:21:16.164Z,46.26
2023-08-08T16:23:50.720Z,46.54
2023-08-08T16:26:22.508Z,46.72
2023-08-08T16:28:54.768Z,46.68
2023-08-08T16:31:35.836Z,46.63
2023-08-08T16:34:18.408Z,47.06
2023-08-08T16:36:49.661Z,47.33
2023-08-08T16:39:20.260Z,48.06
2023-08-08T16:41:51.255Z,49.07
2023-08-08T16:44:22.166Z,49.87
2023-08-08T16:46:59.462Z,50.04
2023-08-08T16:49:35.252Z,49.14
2023-08-08T16:52:10.932Z,48.79
2023-08-08T16:54:41.381Z,48.15
2023-08-08T16:57:18.322Z,48.28
2023-08-08T16:59:48.299Z,48.83
2023-08-08T17:02:19.652Z,49.66
2023-08-08T17:04:54.506Z,50.73
2023-08-08T17:07:26.986Z,51.33
2023-08-08T17:09:57.917Z,51.69
2023-08-08T17:12:27.946Z,51.15
2023-08-08T17:15:00.968Z,51.32
2023-08-08T17:17:35.554Z,51.45
2023-08-08T17:20:10.935Z,51.81
2023-08-08T17:22:43.414Z,52.40
2023-08-08T17:25:16.618Z,52.68
2023-08-08T17:27:51.707Z,52.82
2023-08-08T17:30:23.370Z,52.51
2023-08-08T17:33:00.090Z,52.75
2023-08-08T17:35:31.094Z,53.39
2023-08-08T17:37:59.680Z,52.99
2023-08-08T17:40:32.204Z,53.68
2023-08-08T17:43:05.432Z,53.88
2023-08-08T17:45:34.984Z,53.82
2023-08-08T17:48:13.018Z,53.96
2023-08-08T17:50:43.609Z,53.75
2023-08-08T17:53:14.633Z,54.05
2023-08-08T17:55:44.237Z,54.61
2023-08-08T17:58:13.108Z,55.02
2023-08-08T18:00:41.666Z,55.68
2023-08-08T18:03:11.637Z,56.50
2023-08-08T18:05:40.853Z,56.91
2023-08-08T18:08:09.431Z,57.26
2023-08-08T18:10:38.157Z,57.57
2023-08-08T18:13:06.843Z,58.39
2023-08-08T18:15:35.787Z,58.35
2023-08-08T18:18:05.982Z,58.27
2023-08-08T18:20:36.223Z,57.77
2023-08-08T18:23:05.480Z,57.71
2023-08-08T18:25:33.987Z,57.90
2023-08-08T18:28:04.152Z,58.15
2023-08-08T18:30:32.631Z,58.54
2023-08-08T18:33:01.197Z,58.78
2023-08-08T18:35:29.775Z,58.92
2023-08-08T18:38:00.490Z,59.96
2023-08-08T18:40:29.354Z,60.64
2023-08-08T18:42:58.001Z,61.78
2023-08-08T18:45:31.025Z,62.64
2023-08-08T18:48:03.083Z,63.69
2023-08-08T18:50:33.616Z,65.23
2023-08-08T18:53:07.551Z,65.11
2023-08-08T18:55:38.263Z,65.70
2023-08-08T18:58:12.057Z,66.44
2023-08-08T19:00:42.933Z,66.17
2023-08-08T19:03:23.677Z,67.45
2023-08-08T19:05:53.795Z,67.78
2023-08-08T19:08:27.740Z,68.05
2023-08-08T19:11:03.922Z,68.71
2023-08-08T19:13:36.204Z,69.36
2023-08-08T19:16:07.288Z,69.70
2023-08-08T19:18:37.930Z,70.50
2023-08-08T19:21:07.418Z,71.79
2023-08-08T19:23:42.786Z,72.55
2023-08-08T19:26:11.954Z,73.55
2023-08-08T19:28:42.689Z,75.57
2023-08-08T19:31:14.192Z,77.57
2023-08-08T19:33:59.692Z,78.87
2023-08-08T19:36:35.339Z,80.63
2023-08-08T19:39:07.914Z,82.17
2023-08-08T19:41:38.153Z,83.43
2023-08-08T19:44:10.161Z,86.24
2023-08-08T19:46:41.676Z,88.10
2023-08-08T19:49:12.393Z,90.56
2023-08-08T19:51:46.029Z,92.15
2023-08-08T19:54:20.529Z,92.71
2023-08-08T19:56:50.069Z,94.84
2023-08-08T19:59:18.670Z,95.44
2023-08-08T20:01:52.667Z,95.22
2023-08-08T20:04:22.605Z,95.45
2023-08-08T20:06:51.943Z,95.89
2023-08-08T20:09:23.154Z,95.27
2023-08-08T20:11:51.925Z,95.66
2023-08-08T20:14:20.437Z,96.38
2023-08-08T20:16:49.783Z,96.17
2023-08-08T20:19:19.308Z,96.32
2023-08-08T20:21:48.110Z,97.39
2023-08-08T20:24:17.461Z,98.40
2023-08-08T20:26:49.455Z,99.92
2023-08-08T20:29:19.686Z,100.00
2023-08-08T20:31:49.620Z,100.00
2023-08-08T20:34:43.737Z,100.00
2023-08-08T20:37:16.775Z,100.00
2023-08-08T20:39:48.769Z,100.00
2023-08-08T20:42:20.547Z,100.00
2023-08-08T20:44:53.704Z,100.00
2023-08-08T20:47:23.972Z,100.00
2023-08-08T20:49:54.846Z,100.00
2023-08-08T20:52:25.004Z,100.00
2023-08-08T20:54:54.292Z,100.00
2023-08-08T20:57:25.686Z,100.00
2023-08-08T20:59:55.876Z,100.00
2023-08-08T21:02:28.203Z,100.00
2023-08-08T21:05:00.530Z,100.00
2023-08-08T21:07:34.465Z,100.00
2023-08-08T21:10:05.446Z,100.00
2023-08-08T21:12:40.190Z,100.00
2023-08-08T21:15:10.538Z,100.00
2023-08-08T21:17:44.383Z,100.00
2023-08-08T21:20:14.446Z,100.00
2023-08-08T21:22:51.624Z,100.00
2023-08-08T21:25:30.285Z,100.00
2023-08-08T21:28:02.177Z,100.00
2023-08-08T21:30:36.786Z,100.00
2023-08-08T21:33:06.991Z,100.00
2023-08-08T21:35:39.796Z,100.00
2023-08-08T21:38:11.732Z,100.00
2023-08-08T21:40:42.154Z,100.00
2023-08-08T21:46:01.760Z,100.00
2023-08-08T21:48:30.884Z,100.00
2023-08-08T21:51:01.215Z,100.00
2023-08-08T21:53:30.251Z,100.00
2023-08-08T21:55:59.109Z,100.00
2023-08-08T21:58:27.690Z,100.00
2023-08-08T22:00:56.335Z,100.00
2023-08-08T22:03:26.922Z,100.00
2023-08-08T22:05:55.554Z,100.00
2023-08-08T22:08:24.099Z,100.00
2023-08-08T22:10:52.814Z,100.00
2023-08-08T22:13:21.981Z,100.00
2023-08-08T22:15:50.780Z,100.00
2023-08-08T22:18:20.947Z,100.00
2023-08-08T22:20:51.187Z,100.00
2023-08-08T22:23:21.409Z,100.00
2023-08-08T22:25:51.087Z,100.00
2023-08-08T22:28:21.099Z,100.00
2023-08-08T22:30:53.009Z,100.00
2023-08-08T22:33:22.505Z,100.00
2023-08-08T22:35:52.440Z,100.00
2023-08-08T22:38:20.966Z,100.00
2023-08-08T22:40:49.473Z,100.00
2023-08-08T22:43:18.019Z,100.00
2023-08-08T22:45:46.739Z,100.00
2023-08-08T22:48:15.414Z,100.00
2023-08-08T22:50:45.288Z,100.00
2023-08-08T22:53:15.362Z,100.00
2023-08-08T22:55:43.918Z,100.00
2023-08-08T22:58:14.108Z,100.00
2023-08-08T23:00:42.795Z,100.00
2023-08-08T23:03:12.062Z,100.00
2023-08-08T23:06:06.184Z,100.00
2023-08-08T23:08:36.273Z,100.00
2023-08-08T23:11:05.059Z,100.00
2023-08-08T23:13:33.640Z,100.00
2023-08-08T23:16:02.262Z,100.00
2023-08-08T23:18:30.862Z,100.00
2023-08-08T23:20:59.521Z,100.00
2023-08-08T23:23:47.707Z,100.00
2023-08-08T23:26:16.717Z,100.00
2023-08-08T23:28:45.466Z,100.00
2023-08-08T23:31:14.181Z,100.00
2023-08-08T23:33:44.692Z,100.00
2023-08-08T23:36:13.447Z,100.00
2023-08-08T23:38:43.009Z,100.00
2023-08-08T23:41:13.010Z,100.00
2023-08-08T23:43:44.149Z,100.00
2023-08-08T23:46:13.441Z,100.00
2023-08-08T23:48:42.634Z,100.00
2023-08-08T23:51:11.139Z,100.00
2023-08-08T23:53:39.696Z,100.00
2023-08-08T23:56:08.596Z,100.00
2023-08-08T23:58:38.623Z,100.00
